Time;durP1;ratioP1;P1;durP2;ratioP2;P2;SDS_P1;SDS_P2;PMS_P1;PMS_P2;Temp;Humidity;BMP_temperature;BMP_pressure;BME280_temperature;BME280_humidity;BME280_pressure;Samples;Min_cycle;Max_cycle;Signal;HPM_P1;HPM_P2
2022/09/27 00:05:09;;;;;;;12.37;8.80;;;;;;;15.15;97.10;97885.30;4307603;81;28583;-79
2022/09/27 00:11:31;;;;;;;14.07;8.50;;;;;;;14.84;98.53;97876.19;4362671;81;28566;-78
2022/09/27 00:17:32;;;;;;;13.72;8.38;;;;;;;15.16;92.10;97869.34;4329552;81;28495;-80
2022/09/27 00:23:34;;;;;;;14.58;8.93;;;;;;;15.01;90.75;97860.86;4304453;81;28599;-82
2022/09/27 00:29:36;;;;;;;11.80;8.38;;;;;;;14.71;91.03;97860.88;4336795;81;28591;-82
2022/09/27 00:35:38;;;;;;;13.30;8.35;;;;;;;14.73;95.72;97847.89;4343728;81;28534;-81
2022/09/27 00:41:41;;;;;;;12.85;7.70;;;;;;;15.00;93.70;97838.95;4327322;81;28557;-79
2022/09/27 00:48:02;;;;;;;13.20;7.62;;;;;;;14.82;90.12;97847.27;4319951;81;28484;-80
2022/09/27 00:54:06;;;;;;;11.75;7.95;;;;;;;14.68;88.28;97835.77;4377110;81;28574;-80
2022/09/27 01:00:11;;;;;;;11.12;8.08;;;;;;;14.58;89.30;97823.17;4363726;81;28605;-79
2022/09/27 01:06:15;;;;;;;11.03;7.30;;;;;;;14.40;92.56;97823.34;4364537;81;28547;-79
2022/09/27 01:12:24;;;;;;;10.40;7.53;;;;;;;14.38;93.08;97816.06;4331787;80;28499;-79
2022/09/27 01:18:31;;;;;;;9.93;7.03;;;;;;;14.44;91.22;97810.05;4320682;80;28574;-80
2022/09/27 01:24:53;;;;;;;10.28;7.40;;;;;;;14.42;93.31;97799.55;4349245;81;28594;-80
2022/09/27 01:31:09;;;;;;;13.20;6.90;;;;;;;14.32;95.49;97795.59;4310806;81;28589;-80
2022/09/27 01:37:19;;;;;;;11.78;6.92;;;;;;;14.44;98.52;97787.07;4327351;81;28525;-79
2022/09/27 01:43:34;;;;;;;11.75;7.05;;;;;;;14.39;100.00;97777.68;4419519;79;28587;-82
2022/09/27 01:49:56;;;;;;;14.20;7.22;;;;;;;14.72;98.35;97776.48;4470179;78;28541;-80
2022/09/27 01:56:02;;;;;;;11.08;6.87;;;;;;;14.64;97.99;97764.41;4371413;79;28488;-80
2022/09/27 02:02:11;;;;;;;10.15;7.65;;;;;;;14.38;93.57;97765.25;4408900;78;28607;-80
2022/09/27 02:08:29;;;;;;;10.98;7.37;;;;;;;14.66;90.81;97756.81;4371737;80;28485;-79
2022/09/27 02:14:49;;;;;;;10.32;6.58;;;;;;;14.49;96.37;97751.31;4367548;80;28553;-79
2022/09/27 02:20:57;;;;;;;14.50;7.22;;;;;;;14.26;95.54;97746.16;4306681;81;28571;-80
2022/09/27 02:27:13;;;;;;;7.77;6.47;;;;;;;14.21;97.36;97738.94;4351569;80;28571;-80
2022/09/27 02:33:15;;;;;;;9.00;7.22;;;;;;;14.06;98.54;97737.20;4378479;80;28557;-80
2022/09/27 02:39:18;;;;;;;9.45;7.22;;;;;;;14.12;98.69;97735.25;4383047;80;28461;-79
2022/09/27 02:45:20;;;;;;;10.58;6.80;;;;;;;13.85;99.27;97736.58;4330665;81;28620;-79
2022/09/27 02:51:30;;;;;;;9.60;6.53;;;;;;;14.14;98.16;97734.41;4318019;81;28533;-79
2022/09/27 02:58:03;;;;;;;11.38;6.40;;;;;;;14.11;97.07;97714.72;4284292;81;28516;-79
2022/09/27 03:04:22;;;;;;;10.30;6.72;;;;;;;14.10;100.00;97710.38;4312472;81;28538;-79
2022/09/27 03:10:27;;;;;;;9.68;6.75;;;;;;;14.01;95.60;97708.86;4295638;81;28586;-79
2022/09/27 03:16:28;;;;;;;13.93;7.37;;;;;;;13.97;98.18;97698.38;4346066;81;28537;-79
2022/09/27 03:22:43;;;;;;;12.10;7.60;;;;;;;13.96;99.52;97703.52;4330726;80;28550;-79
2022/09/27 03:28:45;;;;;;;11.73;7.28;;;;;;;14.00;98.68;97713.19;4352077;80;28538;-79
2022/09/27 03:34:47;;;;;;;10.88;7.70;;;;;;;14.05;98.24;97713.94;4316668;80;28605;-80
2022/09/27 03:40:49;;;;;;;10.88;7.40;;;;;;;14.05;100.00;97713.94;4351510;80;28539;-82
2022/09/27 03:46:50;;;;;;;9.45;6.83;;;;;;;14.00;100.00;97698.33;4333719;80;28565;-82
2022/09/27 03:52:53;;;;;;;9.10;6.83;;;;;;;13.61;100.00;97683.86;4306060;80;28535;-80
2022/09/27 03:58:55;;;;;;;11.95;7.62;;;;;;;13.84;100.00;97685.52;4325821;80;28557;-80
2022/09/27 04:04:57;;;;;;;12.40;8.03;;;;;;;13.98;100.00;97687.83;4342158;80;28548;-78
2022/09/27 04:10:58;;;;;;;10.53;7.12;;;;;;;14.08;100.00;97679.61;4371260;80;28529;-78
2022/09/27 04:17:01;;;;;;;12.63;7.20;;;;;;;14.22;100.00;97677.02;4347373;80;28518;-79
2022/09/27 04:23:04;;;;;;;10.43;6.90;;;;;;;13.90;100.00;97681.70;4320945;80;28502;-87
2022/09/27 04:29:08;;;;;;;12.30;7.50;;;;;;;13.84;100.00;97663.38;4397069;80;28543;-88
2022/09/27 04:41:34;;;;;;;8.35;6.87;;;;;;;13.68;100.00;97660.56;4373674;80;28562;-85
2022/09/27 04:47:39;;;;;;;10.95;7.28;;;;;;;13.61;100.00;97660.91;4390834;80;28502;-84
2022/09/27 04:53:41;;;;;;;9.35;7.20;;;;;;;13.69;100.00;97668.39;4343996;80;28497;-85
2022/09/27 04:59:44;;;;;;;10.90;6.85;;;;;;;13.65;100.00;97670.06;4419028;78;28524;-82
2022/09/27 05:05:46;;;;;;;10.23;7.05;;;;;;;13.58;100.00;97653.38;4395763;78;28536;-81
2022/09/27 05:11:47;;;;;;;10.68;6.92;;;;;;;13.62;100.00;97643.08;4397796;78;28467;-82
2022/09/27 05:17:55;;;;;;;13.20;7.85;;;;;;;13.81;100.00;97647.75;4406085;78;28523;-81
2022/09/27 05:24:15;;;;;;;11.15;7.17;;;;;;;13.95;100.00;97637.05;4376579;79;28564;-83
2022/09/27 05:30:16;;;;;;;11.97;7.60;;;;;;;13.73;100.00;97630.26;4445480;79;28559;-87
2022/09/27 05:36:22;;;;;;;12.00;7.20;;;;;;;13.94;100.00;97628.69;4403450;79;28485;-86
2022/09/27 05:42:23;;;;;;;9.85;7.28;;;;;;;13.99;100.00;97628.64;4422703;79;28499;-88
2022/09/27 05:48:32;;;;;;;15.60;7.50;;;;;;;14.18;100.00;97621.13;4391092;78;28645;-80
2022/09/27 05:54:42;;;;;;;12.28;7.67;;;;;;;14.26;100.00;97626.42;4342027;80;28504;-80
2022/09/27 06:00:44;;;;;;;17.82;7.97;;;;;;;14.23;100.00;97625.09;4408369;78;28555;-81
2022/09/27 06:06:47;;;;;;;11.95;7.53;;;;;;;14.21;100.00;97623.23;4379359;79;28599;-81
2022/09/27 06:12:49;;;;;;;13.78;9.13;;;;;;;14.74;100.00;97610.65;4365418;80;28469;-81
2022/09/27 06:18:55;;;;;;;13.10;8.25;;;;;;;14.73;100.00;97609.83;4330456;80;28532;-80
2022/09/27 06:25:27;;;;;;;;;;;;;;;;;;;;;
2022/09/27 06:31:45;;;;;;;15.53;9.90;;;;;;;15.87;100.00;97626.86;4335160;80;28542;-80
2022/09/27 06:37:52;;;;;;;14.43;8.83;;;;;;;16.56;98.72;97630.66;4386678;79;28539;-80
2022/09/27 06:43:55;;;;;;;17.07;9.93;;;;;;;16.77;95.38;97626.67;4396928;78;28524;-80
2022/09/27 06:50:16;;;;;;;15.88;9.25;;;;;;;17.04;92.66;97625.00;4438405;78;28597;-80
2022/09/27 06:56:18;;;;;;;13.25;9.03;;;;;;;16.63;91.00;97623.45;4347739;80;28523;-81
2022/09/27 07:02:21;;;;;;;16.57;9.95;;;;;;;16.82;90.24;97621.14;4391908;79;28487;-80
2022/09/27 07:08:41;;;;;;;15.08;9.95;;;;;;;16.99;88.82;97628.61;4331855;80;28455;-80
2022/09/27 07:14:43;;;;;;;16.48;10.35;;;;;;;16.83;87.96;97624.88;4374364;80;28557;-80
2022/09/27 07:20:52;;;;;;;17.30;10.70;;;;;;;16.73;89.93;97615.63;4342438;80;28563;-80
2022/09/27 07:26:53;;;;;;;15.90;10.08;;;;;;;17.05;88.23;97619.24;4316035;82;28491;-79
2022/09/27 07:33:01;;;;;;;18.27;10.03;;;;;;;17.72;83.46;97615.39;4344049;82;28614;-80
2022/09/27 07:39:03;;;;;;;15.10;10.53;;;;;;;17.63;82.72;97607.75;4349113;82;28571;-80
2022/09/27 07:45:08;;;;;;;14.43;9.73;;;;;;;17.76;83.43;97602.79;4314099;82;28538;-79
2022/09/27 07:51:28;;;;;;;17.15;10.10;;;;;;;17.26;85.08;97610.05;4342630;81;28499;-81
2022/09/27 07:57:38;;;;;;;18.85;10.38;;;;;;;17.45;84.14;97600.89;4304925;81;28516;-80
2022/09/27 08:03:40;;;;;;;17.57;10.45;;;;;;;17.99;85.26;97599.98;4329490;81;28535;-80
2022/09/27 08:09:42;;;;;;;20.10;11.30;;;;;;;18.21;81.69;97598.30;4322528;80;28529;-80
2022/09/27 08:15:44;;;;;;;20.10;11.85;;;;;;;17.72;87.69;97596.36;4339208;81;28520;-80
2022/09/27 08:21:46;;;;;;;21.02;11.63;;;;;;;18.22;85.45;97587.12;4349524;80;28553;-80
2022/09/27 08:28:03;;;;;;;21.55;13.20;;;;;;;18.54;81.43;97585.61;4388938;80;28462;-80
2022/09/27 08:34:12;;;;;;;27.10;13.45;;;;;;;18.60;79.62;97585.70;4342771;81;28578;-80
2022/09/27 08:40:16;;;;;;;33.35;14.65;;;;;;;18.68;78.57;97591.69;4340046;80;28555;-80
2022/09/27 08:46:39;;;;;;;31.65;15.15;;;;;;;19.09;78.12;97584.72;4350268;80;28491;-80
2022/09/27 08:53:40;;;;;;;30.72;15.58;;;;;;;19.02;76.63;97584.43;4338357;80;28543;-80
2022/09/27 09:00:06;;;;;;;27.52;14.53;;;;;;;19.16;76.57;97568.69;4368061;81;28501;-80
2022/09/27 09:06:46;;;;;;;26.35;14.20;;;;;;;18.47;81.68;97567.05;4402490;79;28524;-79
2022/09/27 09:12:56;;;;;;;20.43;12.98;;;;;;;18.72;81.76;97557.05;4384895;79;28494;-80
2022/09/27 09:19:26;;;;;;;14.70;9.63;;;;;;;19.17;81.06;97555.30;4394492;78;28622;-80
2022/09/27 09:26:00;;;;;;;13.45;9.30;;;;;;;19.20;79.99;97553.28;4417029;79;28520;-81
2022/09/27 09:32:28;;;;;;;15.85;9.68;;;;;;;19.49;79.55;97533.26;4344154;81;28534;-80
2022/09/27 09:38:57;;;;;;;13.08;9.05;;;;;;;19.32;84.19;97524.59;4411575;78;28511;-82
2022/09/27 09:45:06;;;;;;;17.10;9.38;;;;;;;19.24;84.27;97523.47;4434764;78;28607;-81
2022/09/27 09:51:16;;;;;;;15.68;8.88;;;;;;;19.90;80.89;97506.41;4354003;81;28557;-81
2022/09/27 09:57:42;;;;;;;16.48;9.40;;;;;;;19.71;81.37;97500.03;4357062;80;28524;-80
2022/09/27 10:03:47;;;;;;;12.75;8.48;;;;;;;19.72;84.22;97476.52;4375424;79;28569;-82
2022/09/27 10:09:52;;;;;;;11.00;7.80;;;;;;;19.75;86.56;97470.42;4370714;80;28527;-81
2022/09/27 10:16:13;;;;;;;11.33;7.65;;;;;;;19.51;87.00;97469.09;4373025;79;28549;-81
2022/09/27 10:22:31;;;;;;;11.10;7.33;;;;;;;20.60;80.82;97461.42;4397263;78;28551;-81
2022/09/27 10:28:38;;;;;;;10.48;7.28;;;;;;;20.02;83.81;97452.55;4330937;80;28503;-80
2022/09/27 10:34:41;;;;;;;9.63;7.50;;;;;;;20.33;83.65;97439.83;4431626;80;28505;-81
2022/09/27 10:40:44;;;;;;;13.48;7.85;;;;;;;20.23;83.69;97436.15;4414265;80;28582;-81
2022/09/27 10:46:50;;;;;;;8.18;5.97;;;;;;;20.54;85.09;97432.75;4442260;80;28519;-80
2022/09/27 10:53:04;;;;;;;9.90;6.47;;;;;;;20.70;81.49;97421.98;4418150;80;28546;-81
2022/09/27 10:59:08;;;;;;;8.48;6.70;;;;;;;21.89;75.76;97414.61;4404276;80;28639;-81
2022/09/27 11:05:26;;;;;;;9.33;6.60;;;;;;;22.93;71.88;97405.70;4402268;80;28528;-82
2022/09/27 11:11:29;;;;;;;10.05;6.80;;;;;;;21.66;73.35;97405.50;4388476;80;28497;-81
2022/09/27 11:17:40;;;;;;;8.28;5.87;;;;;;;22.65;72.25;97396.16;4400111;80;28508;-80
2022/09/27 11:24:00;;;;;;;8.75;5.90;;;;;;;22.68;70.75;97394.11;4384927;80;28513;-80
2022/09/27 11:30:18;;;;;;;7.30;5.67;;;;;;;22.90;69.42;97385.83;4352982;80;28505;-81
2022/09/27 11:37:11;;;;;;;8.73;5.93;;;;;;;22.51;70.25;97377.44;4418719;78;28573;-81
2022/09/27 11:43:26;;;;;;;11.95;6.22;;;;;;;22.60;70.27;97369.05;4453933;78;28534;-81
2022/09/27 11:49:54;;;;;;;7.58;5.08;;;;;;;22.81;70.79;97366.84;4302204;81;28465;-81
2022/09/27 11:56:10;;;;;;;6.75;4.87;;;;;;;22.67;70.84;97360.43;4329560;80;28556;-81
2022/09/27 12:03:02;;;;;;;8.50;4.62;;;;;;;24.09;68.41;97357.55;4389883;80;28551;-81
2022/09/27 12:09:13;;;;;;;7.65;4.92;;;;;;;24.16;65.63;97350.58;4352439;80;28520;-81
2022/09/27 12:15:22;;;;;;;7.62;4.87;;;;;;;23.32;66.83;97343.38;4310540;80;28525;-81
2022/09/27 12:21:25;;;;;;;5.40;3.62;;;;;;;23.84;67.57;97335.63;4338221;80;28506;-80
2022/09/27 12:27:40;;;;;;;5.85;4.00;;;;;;;23.92;63.47;97332.68;4381982;78;28488;-80
2022/09/27 12:34:11;;;;;;;4.30;2.60;;;;;;;24.58;63.34;97317.41;4396821;79;28501;-80
2022/09/27 12:40:28;;;;;;;3.37;2.60;;;;;;;24.60;58.25;97317.25;4339875;80;28539;-80
2022/09/27 12:47:04;;;;;;;2.95;2.50;;;;;;;24.91;56.79;97305.00;4374118;80;28561;-81
2022/09/27 12:53:26;;;;;;;4.40;2.95;;;;;;;25.07;55.89;97302.09;4362251;80;28570;-81
2022/09/27 12:59:55;;;;;;;3.42;2.75;;;;;;;25.25;56.25;97296.06;4319940;80;28568;-80
2022/09/27 13:06:46;;;;;;;5.30;2.98;;;;;;;25.32;55.48;97294.79;4322562;80;28470;-80
2022/09/27 13:12:55;;;;;;;5.40;2.90;;;;;;;25.43;56.79;97277.03;4290516;80;28591;-80
2022/09/27 13:19:00;;;;;;;3.25;2.58;;;;;;;25.22;55.53;97272.84;4332651;80;28456;-81
2022/09/27 13:25:15;;;;;;;4.80;2.90;;;;;;;25.03;56.02;97271.80;4363373;80;28518;-81
2022/09/27 13:31:57;;;;;;;3.72;2.27;;;;;;;24.80;55.46;97267.75;4291635;81;28583;-80
2022/09/27 13:38:22;;;;;;;3.08;2.52;;;;;;;25.17;55.33;97277.30;4321680;80;28568;-80
2022/09/27 13:45:02;;;;;;;2.60;2.20;;;;;;;24.99;55.23;97271.53;4399688;79;28564;-82
2022/09/27 13:51:26;;;;;;;3.10;2.50;;;;;;;25.04;55.12;97272.60;4352781;80;28527;-81
2022/09/27 13:58:04;;;;;;;4.22;2.55;;;;;;;24.88;53.32;97272.16;4393740;79;28568;-80
2022/09/27 14:04:21;;;;;;;5.00;2.62;;;;;;;24.87;53.19;97274.70;4199174;83;28548;-81
2022/09/27 14:10:26;;;;;;;3.60;2.10;;;;;;;24.80;54.43;97269.69;4324891;81;28525;-81
2022/09/27 14:16:34;;;;;;;3.55;2.12;;;;;;;24.39;52.06;97270.98;4421039;79;28547;-83
2022/09/27 14:22:37;;;;;;;2.40;2.20;;;;;;;24.10;52.88;97264.98;4400702;79;28474;-81
2022/09/27 14:28:41;;;;;;;2.25;1.90;;;;;;;23.83;53.73;97269.00;4384183;80;28539;-80
2022/09/27 14:41:43;;;;;;;;;;;;;;;23.75;55.10;97274.13;4372714;80;28549;-81
2022/09/27 14:47:48;;;;;;;2.20;1.90;;;;;;;23.55;55.63;97263.16;4360128;81;20523;-78
2022/09/27 14:53:55;;;;;;;3.95;3.20;;;;;;;23.53;55.97;97265.47;4358286;80;28557;-80
2022/09/27 14:59:56;;;;;;;5.10;2.17;;;;;;;23.59;57.12;97272.83;4376679;80;28519;-80
2022/09/27 15:06:00;;;;;;;3.60;2.08;;;;;;;23.54;57.93;97286.25;4375962;81;28479;-79
2022/09/27 15:12:04;;;;;;;2.52;1.87;;;;;;;23.29;59.18;97276.94;4358670;80;28587;-82
2022/09/27 15:18:34;;;;;;;3.92;2.35;;;;;;;22.99;61.37;97280.17;4390176;80;28541;-82
2022/09/27 15:24:39;;;;;;;4.10;2.87;;;;;;;22.66;61.64;97295.06;4335470;80;28479;-82
2022/09/27 15:30:49;;;;;;;2.52;1.62;;;;;;;22.12;64.95;97302.66;4270900;81;28555;-81
2022/09/27 15:37:02;;;;;;;1.90;1.50;;;;;;;20.94;66.39;97346.70;4376260;80;28523;-80
2022/09/27 15:43:31;;;;;;;2.85;1.47;;;;;;;20.53;68.82;97335.03;4370099;80;28530;-80
2022/09/27 15:49:34;;;;;;;2.60;1.60;;;;;;;20.33;69.66;97327.94;4351040;80;28520;-81
2022/09/27 15:55:44;;;;;;;3.37;1.60;;;;;;;20.24;71.45;97343.61;4317860;82;28561;-81
2022/09/27 16:01:46;;;;;;;3.42;1.90;;;;;;;20.08;73.22;97348.12;4338161;80;28515;-79
2022/09/27 16:07:48;;;;;;;3.35;1.90;;;;;;;19.69;76.17;97359.95;4387909;80;28589;-82
2022/09/27 16:13:51;;;;;;;4.40;2.12;;;;;;;20.08;73.83;97361.76;4379360;80;28537;-84
2022/09/27 16:19:59;;;;;;;5.10;2.00;;;;;;;19.79;74.26;97371.83;4378886;80;28539;-85
2022/09/27 16:26:00;;;;;;;4.25;2.47;;;;;;;19.62;74.53;97377.40;4373319;79;28493;-83
2022/09/27 16:32:01;;;;;;;4.03;2.65;;;;;;;19.41;79.11;97380.13;4376998;80;28605;-84
2022/09/27 16:38:06;;;;;;;3.40;2.27;;;;;;;19.28;78.92;97392.30;4425357;78;28464;-88
2022/09/27 16:44:11;;;;;;;4.40;2.58;;;;;;;19.53;75.90;97391.09;4361078;80;28504;-82
2022/09/27 16:56:35;;;;;;;4.60;3.22;;;;;;;19.55;75.87;97410.64;4377253;80;28557;-82
2022/09/27 17:02:37;;;;;;;4.80;3.12;;;;;;;19.65;74.86;97418.43;4306787;81;28510;-83
2022/09/27 17:08:39;;;;;;;4.85;3.35;;;;;;;19.15;76.48;97417.83;4385816;80;28509;-86
2022/09/27 17:14:41;;;;;;;5.75;3.50;;;;;;;18.93;78.70;97407.40;4409934;80;28477;-82
2022/09/27 17:20:44;;;;;;;7.62;3.70;;;;;;;18.87;79.63;97408.14;4452911;80;28539;-81
2022/09/27 17:26:45;;;;;;;5.20;3.60;;;;;;;19.07;77.61;97409.39;4367347;80;28535;-81
2022/09/27 17:32:47;;;;;;;7.90;3.90;;;;;;;18.94;78.17;97411.72;4336251;81;28523;-81
2022/09/27 17:38:50;;;;;;;5.47;3.65;;;;;;;18.86;78.46;97406.55;4281778;83;28479;-81
2022/09/27 17:44:52;;;;;;;6.37;3.58;;;;;;;18.67;79.16;97408.30;4281242;82;28538;-82
2022/09/27 17:50:53;;;;;;;7.67;4.30;;;;;;;18.38;82.39;97416.05;4282397;83;28498;-81
2022/09/27 17:56:57;;;;;;;5.92;3.70;;;;;;;18.51;80.90;97418.33;4281220;83;28576;-80
2022/09/27 18:02:59;;;;;;;8.83;5.15;;;;;;;18.20;84.77;97418.55;4288508;82;28494;-81
2022/09/27 18:09:01;;;;;;;9.23;4.78;;;;;;;18.34;83.88;97433.34;4333104;82;28573;-82
2022/09/27 18:15:03;;;;;;;8.90;4.90;;;;;;;18.43;82.56;97431.95;4324638;81;28528;-81
2022/09/27 18:21:15;;;;;;;8.33;5.12;;;;;;;18.35;83.04;97442.52;4347691;79;28541;-82
2022/09/27 18:27:18;;;;;;;8.88;5.22;;;;;;;18.11;85.94;97454.70;4332565;80;28597;-83
2022/09/27 18:33:20;;;;;;;9.03;5.78;;;;;;;18.63;84.18;97456.33;4373929;80;28613;-81
2022/09/27 18:39:24;;;;;;;9.23;6.00;;;;;;;18.36;85.64;97452.28;4377093;80;28524;-85
2022/09/27 18:45:39;;;;;;;11.03;6.35;;;;;;;18.50;85.93;97467.08;4444042;78;29161;-92
2022/09/27 18:51:48;;;;;;;9.93;6.15;;;;;;;18.71;84.29;97475.14;4428039;78;28730;-79
2022/09/27 18:57:48;;;;;;;9.35;5.85;;;;;;;18.86;84.37;97476.55;4389887;78;28522;-88
2022/09/27 19:07:19;;;;;;;12.45;6.78;;;;;;;18.79;86.36;97469.67;4529727;77;142215;-86
2022/09/27 19:13:21;;;;;;;10.10;6.47;;;;;;;18.80;85.78;97478.07;4591244;77;28517;-82
2022/09/27 19:19:23;;;;;;;11.40;7.50;;;;;;;18.80;85.38;97478.65;4647790;75;28509;-85
2022/09/27 19:25:26;;;;;;;11.48;7.67;;;;;;;18.52;85.82;97481.73;4428763;78;28537;-80
2022/09/27 19:31:32;;;;;;;11.97;7.42;;;;;;;18.71;85.28;97488.17;4430386;79;28520;-79
2022/09/27 19:37:36;;;;;;;11.97;7.20;;;;;;;18.39;88.12;97487.03;4450148;78;28581;-80
2022/09/27 19:43:38;;;;;;;10.82;6.92;;;;;;;18.49;88.92;97487.83;4428298;78;28510;-78
2022/09/27 19:49:41;;;;;;;14.70;6.78;;;;;;;18.24;90.48;97492.94;4470594;79;28483;-79
2022/09/27 19:55:42;;;;;;;10.65;6.67;;;;;;;18.34;90.79;97494.55;4470135;78;28502;-79
2022/09/27 20:01:48;;;;;;;13.90;7.47;;;;;;;18.22;91.66;97493.82;4435918;79;28530;-85
2022/09/27 20:08:18;;;;;;;;;;;;;;;;;;;;;
2022/09/27 20:14:42;;;;;;;12.88;7.22;;;;;;;18.22;92.76;97490.55;4216472;79;28507;-81
2022/09/27 20:20:41;;;;;;;11.43;6.03;;;;;;;18.32;92.01;97489.42;4449676;79;28536;-78
2022/09/27 20:26:44;;;;;;;11.33;6.95;;;;;;;18.27;92.43;97478.69;4570107;76;28490;-82
2022/09/27 20:39:21;;;;;;;11.35;7.03;;;;;;;18.32;93.87;97475.82;4545423;78;28528;-82
2022/09/27 20:45:22;;;;;;;12.70;7.45;;;;;;;18.37;93.53;97480.30;4554573;78;28565;-82
2022/09/27 20:51:26;;;;;;;11.50;6.90;;;;;;;18.31;92.72;97487.02;4524653;77;28500;-81
2022/09/27 20:57:28;;;;;;;9.78;6.10;;;;;;;18.16;93.18;97488.28;4563356;77;28578;-81
2022/09/27 21:03:29;;;;;;;10.10;5.87;;;;;;;18.10;93.37;97484.38;4560591;77;28520;-81
2022/09/27 21:09:30;;;;;;;8.95;5.72;;;;;;;18.33;91.96;97487.52;4577381;77;28525;-80
2022/09/27 21:15:32;;;;;;;9.13;5.50;;;;;;;18.08;93.46;97493.97;4576082;77;28509;-81
2022/09/27 21:21:35;;;;;;;9.35;5.95;;;;;;;17.94;95.17;97496.25;4532368;77;28553;-82
2022/09/27 21:27:36;;;;;;;10.45;6.30;;;;;;;18.05;94.54;97503.55;4571890;76;28475;-82
2022/09/27 21:33:39;;;;;;;12.47;6.47;;;;;;;17.98;95.10;97499.14;4574984;77;28560;-82
2022/09/27 21:39:40;;;;;;;10.35;6.20;;;;;;;18.08;93.88;97492.06;4570857;77;28541;-82
2022/09/27 21:45:41;;;;;;;12.45;6.75;;;;;;;18.17;93.83;97476.28;4576906;77;28625;-82
2022/09/27 21:51:46;;;;;;;8.30;5.87;;;;;;;18.02;94.94;97481.63;4571929;76;28565;-82
2022/09/27 21:57:47;;;;;;;11.18;6.35;;;;;;;17.98;95.75;97473.31;4578255;77;28516;-82
2022/09/27 22:03:51;;;;;;;10.90;5.85;;;;;;;17.90;96.62;97465.94;4580974;76;28486;-83
2022/09/27 22:09:52;;;;;;;12.50;7.35;;;;;;;18.03;95.98;97467.73;4578696;76;28509;-84
2022/09/27 22:15:54;;;;;;;13.65;7.20;;;;;;;17.73;97.61;97461.28;4572919;76;28508;-83
2022/09/27 22:21:55;;;;;;;10.63;6.90;;;;;;;17.80;96.77;97466.48;4528970;76;28506;-81
2022/09/27 22:27:57;;;;;;;12.70;7.22;;;;;;;17.56;98.27;97469.63;4555175;77;28480;-81
2022/09/27 22:34:02;;;;;;;12.00;7.37;;;;;;;17.46;98.76;97482.14;4540102;76;28483;-81
2022/09/27 22:40:05;;;;;;;11.63;7.47;;;;;;;17.67;97.45;97473.64;4504135;78;28545;-81
2022/09/27 22:46:08;;;;;;;12.37;7.90;;;;;;;17.72;97.17;97484.14;4565210;77;28553;-82
2022/09/27 22:52:10;;;;;;;11.28;7.55;;;;;;;17.85;96.21;97484.56;4508475;76;28534;-82
2022/09/27 22:58:11;;;;;;;13.45;7.67;;;;;;;17.68;96.59;97473.09;4561290;78;28513;-81
2022/09/27 23:04:13;;;;;;;12.53;7.65;;;;;;;17.47;98.24;97476.95;4550922;76;28528;-81
2022/09/27 23:10:15;;;;;;;13.20;7.28;;;;;;;17.45;98.50;97481.36;4534911;78;28528;-82
2022/09/27 23:16:20;;;;;;;10.05;6.90;;;;;;;17.43;98.62;97472.70;4535542;76;28600;-82
2022/09/27 23:22:21;;;;;;;11.45;6.22;;;;;;;17.38;98.56;97477.72;4520633;76;28518;-82
2022/09/27 23:28:22;;;;;;;8.65;5.85;;;;;;;17.49;97.82;97476.07;4349592;80;28493;-82
2022/09/27 23:34:24;;;;;;;8.73;5.97;;;;;;;17.32;99.07;97467.31;4321919;80;28538;-82
2022/09/27 23:40:25;;;;;;;9.28;5.85;;;;;;;17.37;98.48;97472.04;4513428;76;28528;-82
2022/09/27 23:46:27;;;;;;;8.55;5.80;;;;;;;17.32;98.93;97484.42;4472662;78;28504;-81
2022/09/27 23:52:29;;;;;;;9.60;5.97;;;;;;;17.40;97.77;97491.80;4517685;76;28504;-81
2022/09/27 23:58:36;;;;;;;8.78;5.50;;;;;;;17.78;95.15;97499.16;4555215;77;28536;-87
